Time;durP1;ratioP1;P1;durP2;ratioP2;P2;SDS_P1;SDS_P2;PMS_P1;PMS_P2;Temp;Humidity;BMP_temperature;BMP_pressure;BME280_temperature;BME280_humidity;BME280_pressure;Samples;Min_cycle;Max_cycle;Signal;HPM_P1;HPM_P2
2023/12/20 00:00:18;;;;;;;0.43;0.40;;;5.10;99.90;;;;;;2041310;28;20295;-84
2023/12/20 00:01:19;;;;;;;0.40;0.40;;;5.10;99.90;;;;;;2033181;28;20355;-82
2023/12/20 00:02:19;;;;;;;0.40;0.40;;;5.20;99.90;;;;;;2033194;29;20272;-83
2023/12/20 00:03:20;;;;;;;0.30;0.30;;;5.20;99.90;;;;;;2048309;28;20176;-82
2023/12/20 00:04:21;;;;;;;0.40;0.40;;;5.30;99.90;;;;;;2038859;28;20215;-83
2023/12/20 00:05:21;;;;;;;0.50;0.50;;;5.30;99.90;;;;;;2038684;28;20564;-84
2023/12/20 00:06:22;;;;;;;0.50;0.50;;;5.30;99.90;;;;;;2039904;28;22538;-82
2023/12/20 00:07:23;;;;;;;0.50;0.50;;;5.20;99.90;;;;;;2040895;28;20239;-83
2023/12/20 00:08:23;;;;;;;0.30;0.30;;;5.20;99.90;;;;;;2039440;28;20228;-84
2023/12/20 00:09:24;;;;;;;0.60;0.40;;;5.20;99.90;;;;;;2032068;28;20225;-83
2023/12/20 00:10:25;;;;;;;0.70;0.40;;;5.20;99.90;;;;;;2040389;28;20236;-83
2023/12/20 00:11:25;;;;;;;0.40;0.40;;;5.20;99.90;;;;;;2040264;29;20270;-84
2023/12/20 00:12:26;;;;;;;0.33;0.33;;;5.30;99.90;;;;;;2048247;29;20298;-82
2023/12/20 00:13:27;;;;;;;0.40;0.40;;;5.30;99.90;;;;;;2048563;28;20242;-83
2023/12/20 00:14:28;;;;;;;0.40;0.40;;;5.40;99.90;;;;;;2032951;29;20299;-84
2023/12/20 00:15:28;;;;;;;0.30;0.30;;;5.50;99.90;;;;;;2032165;28;20284;-84
2023/12/20 00:16:29;;;;;;;1.40;0.40;;;5.60;99.90;;;;;;2032444;28;20245;-84
2023/12/20 00:17:30;;;;;;;0.40;0.40;;;5.60;99.90;;;;;;2065302;28;20273;-84
2023/12/20 00:18:30;;;;;;;0.40;0.40;;;5.70;99.90;;;;;;2040961;28;20240;-84
2023/12/20 00:19:31;;;;;;;0.40;0.40;;;5.70;99.90;;;;;;2040350;28;20240;-82
2023/12/20 00:20:32;;;;;;;0.40;0.40;;;5.80;99.90;;;;;;2038594;28;20262;-83
2023/12/20 00:21:32;;;;;;;0.40;0.40;;;5.70;99.90;;;;;;2038747;28;20252;-82
2023/12/20 00:22:33;;;;;;;0.83;0.60;;;5.70;99.90;;;;;;2040157;28;20312;-84
2023/12/20 00:23:34;;;;;;;1.70;0.50;;;5.50;99.90;;;;;;2040205;29;20267;-84
2023/12/20 00:24:34;;;;;;;0.70;0.50;;;5.50;99.90;;;;;;2065125;28;20566;-82
2023/12/20 00:25:35;;;;;;;0.73;0.50;;;5.40;99.90;;;;;;2032423;28;20360;-84
2023/12/20 00:26:36;;;;;;;0.40;0.40;;;5.30;99.90;;;;;;2038103;29;20947;-83
2023/12/20 00:27:36;;;;;;;0.50;0.50;;;5.30;99.90;;;;;;2048240;28;20236;-83
2023/12/20 00:28:37;;;;;;;0.30;0.30;;;5.30;99.90;;;;;;2041950;28;20743;-83
2023/12/20 00:29:38;;;;;;;0.40;0.40;;;5.20;99.90;;;;;;2035140;28;20260;-83
2023/12/20 00:30:39;;;;;;;0.40;0.40;;;5.20;99.90;;;;;;2031985;28;20233;-81
2023/12/20 00:31:39;;;;;;;0.47;0.47;;;5.20;99.90;;;;;;2034409;28;20235;-82
2023/12/20 00:32:46;;;;;;;0.37;0.37;;;5.20;99.90;;;;;;2039971;28;20296;-83
2023/12/20 00:33:47;;;;;;;1.15;0.57;;;5.20;99.90;;;;;;2042156;29;20229;-81
2023/12/20 00:34:47;;;;;;;0.40;0.40;;;5.20;99.90;;;;;;2040773;28;20225;-82
2023/12/20 00:35:48;;;;;;;0.50;0.43;;;5.30;99.90;;;;;;2039235;28;20452;-82
2023/12/20 00:36:49;;;;;;;0.47;0.47;;;5.30;99.90;;;;;;2047547;29;20219;-81
2023/12/20 00:37:49;;;;;;;0.50;0.47;;;5.30;99.90;;;;;;2044823;28;20244;-81
2023/12/20 00:38:51;;;;;;;0.30;0.30;;;5.20;99.90;;;;;;2040822;29;20232;-82
2023/12/20 00:39:52;;;;;;;0.43;0.43;;;5.20;99.90;;;;;;2048706;29;20696;-83
2023/12/20 00:40:52;;;;;;;0.53;0.50;;;5.20;99.90;;;;;;2047407;28;20231;-84
2023/12/20 00:41:53;;;;;;;0.40;0.40;;;5.20;99.90;;;;;;2086508;28;20759;-84
2023/12/20 00:42:54;;;;;;;0.50;0.50;;;5.20;99.90;;;;;;2032022;28;20656;-82
2023/12/20 00:43:54;;;;;;;0.30;0.30;;;5.20;99.90;;;;;;2045307;28;20282;-83
2023/12/20 00:44:55;;;;;;;0.40;0.40;;;5.10;99.90;;;;;;2039108;28;20279;-83
2023/12/20 00:45:57;;;;;;;0.50;0.50;;;5.10;99.90;;;;;;2032324;29;20228;-82
2023/12/20 00:46:58;;;;;;;0.60;0.47;;;5.10;99.90;;;;;;2047936;28;20239;-82
2023/12/20 00:47:59;;;;;;;0.50;0.50;;;5.10;99.90;;;;;;2056355;28;20277;-83
2023/12/20 00:48:59;;;;;;;0.50;0.50;;;5.10;99.90;;;;;;2039853;28;20243;-83
2023/12/20 00:50:00;;;;;;;0.40;0.40;;;5.10;99.90;;;;;;2040043;28;20517;-82
2023/12/20 00:51:01;;;;;;;0.40;0.40;;;5.10;99.90;;;;;;2048357;28;20228;-83
2023/12/20 00:52:01;;;;;;;0.80;0.40;;;5.10;99.90;;;;;;2051832;28;20247;-84
2023/12/20 00:53:02;;;;;;;0.40;0.40;;;5.10;99.90;;;;;;2039843;28;20243;-83
2023/12/20 00:54:03;;;;;;;0.70;0.40;;;5.10;99.90;;;;;;2039020;29;20305;-82
2023/12/20 00:55:05;;;;;;;0.40;0.40;;;5.10;99.90;;;;;;2046922;28;20269;-82
2023/12/20 00:56:06;;;;;;;0.50;0.35;;;5.00;99.90;;;;;;2047219;28;20212;-81
2023/12/20 00:57:07;;;;;;;0.40;0.40;;;5.00;99.90;;;;;;2035053;28;20192;-81
2023/12/20 00:58:07;;;;;;;0.53;0.43;;;5.00;99.90;;;;;;2039911;29;20216;-82
2023/12/20 00:59:08;;;;;;;0.50;0.50;;;5.00;99.90;;;;;;2043786;29;20208;-80
2023/12/20 01:00:09;;;;;;;0.40;0.40;;;5.00;99.90;;;;;;2039447;29;20212;-84
2023/12/20 01:01:10;;;;;;;0.40;0.40;;;5.00;99.90;;;;;;2039195;29;20329;-81
2023/12/20 01:02:11;;;;;;;0.67;0.67;;;5.00;99.90;;;;;;2023366;29;20190;-84
2023/12/20 01:03:11;;;;;;;0.30;0.30;;;4.90;99.90;;;;;;2031431;29;20185;-82
2023/12/20 01:04:12;;;;;;;0.37;0.37;;;4.90;99.90;;;;;;2038818;28;20188;-83
2023/12/20 01:05:13;;;;;;;1.03;0.47;;;4.90;99.90;;;;;;2039031;29;20195;-83
2023/12/20 01:06:14;;;;;;;0.40;0.40;;;5.00;99.90;;;;;;2038037;28;20239;-83
2023/12/20 01:07:14;;;;;;;0.50;0.50;;;4.80;99.90;;;;;;2046920;28;20253;-81
2023/12/20 01:08:15;;;;;;;0.40;0.40;;;4.80;99.90;;;;;;2037909;28;20268;-84
2023/12/20 01:09:16;;;;;;;0.40;0.40;;;4.80;99.90;;;;;;2034118;28;20189;-83
2023/12/20 01:10:17;;;;;;;0.40;0.40;;;4.90;99.90;;;;;;2023549;28;20201;-84
2023/12/20 01:11:17;;;;;;;0.47;0.47;;;4.80;99.90;;;;;;2023547;28;20321;-83
2023/12/20 01:12:20;;;;;;;0.50;0.50;;;4.80;99.90;;;;;;2030204;29;20464;-84
2023/12/20 01:13:20;;;;;;;0.40;0.40;;;4.80;99.90;;;;;;2038489;29;20184;-83
2023/12/20 01:14:21;;;;;;;0.50;0.50;;;4.80;99.90;;;;;;2031252;29;20561;-82
2023/12/20 01:15:22;;;;;;;1.17;0.40;;;4.90;99.90;;;;;;2031101;28;20368;-83
2023/12/20 01:16:22;;;;;;;0.50;0.50;;;4.90;99.90;;;;;;2038831;29;20248;-83
2023/12/20 01:17:23;;;;;;;0.50;0.50;;;4.90;99.90;;;;;;2041153;29;20808;-81
2023/12/20 01:18:24;;;;;;;1.13;0.50;;;4.90;99.90;;;;;;2042522;29;20252;-84
2023/12/20 01:19:25;;;;;;;0.37;0.37;;;4.80;99.90;;;;;;2038850;29;20233;-82
2023/12/20 01:20:25;;;;;;;0.40;0.40;;;4.80;99.90;;;;;;2040084;28;20228;-84
2023/12/20 01:21:26;;;;;;;0.63;0.63;;;4.80;99.90;;;;;;2032134;28;20237;-84
2023/12/20 01:22:27;;;;;;;0.30;0.30;;;4.80;99.90;;;;;;2040076;29;20320;-84
2023/12/20 01:23:27;;;;;;;0.40;0.40;;;4.80;99.90;;;;;;2032147;29;20700;-83
2023/12/20 01:24:28;;;;;;;0.50;0.50;;;4.90;99.90;;;;;;2037133;29;20232;-85
2023/12/20 01:25:29;;;;;;;0.93;0.50;;;4.80;99.90;;;;;;2044096;28;20602;-84
2023/12/20 01:26:29;;;;;;;0.40;0.40;;;4.70;99.90;;;;;;2039321;28;20301;-83
2023/12/20 01:27:31;;;;;;;0.30;0.30;;;4.80;99.90;;;;;;2039244;28;20232;-83
2023/12/20 01:28:31;;;;;;;0.85;0.57;;;4.70;99.90;;;;;;2033524;28;20244;-81
2023/12/20 01:29:32;;;;;;;1.10;0.47;;;4.60;99.90;;;;;;2035874;28;20312;-83
2023/12/20 01:30:33;;;;;;;0.40;0.40;;;4.60;99.90;;;;;;2032210;28;20256;-84
2023/12/20 01:31:33;;;;;;;0.40;0.40;;;4.70;99.90;;;;;;2032602;28;20323;-83
2023/12/20 01:32:34;;;;;;;0.50;0.50;;;4.60;99.90;;;;;;2046386;28;20231;-84
2023/12/20 01:33:35;;;;;;;0.40;0.40;;;4.60;99.90;;;;;;2039853;28;20315;-83
2023/12/20 01:34:35;;;;;;;0.50;0.50;;;4.60;99.90;;;;;;2039250;29;20238;-83
2023/12/20 01:35:37;;;;;;;0.40;0.40;;;4.60;99.90;;;;;;2027080;28;20238;-84
2023/12/20 01:36:37;;;;;;;0.35;0.35;;;4.60;99.90;;;;;;2038137;28;20232;-81
2023/12/20 01:37:38;;;;;;;0.40;0.40;;;4.60;99.90;;;;;;2031955;28;20252;-83
2023/12/20 01:38:39;;;;;;;0.30;0.30;;;4.60;99.90;;;;;;2031608;28;20260;-84
2023/12/20 01:39:39;;;;;;;1.03;0.40;;;4.60;99.90;;;;;;2023758;29;20273;-81
2023/12/20 01:40:40;;;;;;;0.40;0.40;;;4.60;99.90;;;;;;2031767;29;20255;-84
2023/12/20 01:41:41;;;;;;;0.30;0.30;;;4.60;99.90;;;;;;2031761;28;20300;-83
2023/12/20 01:42:41;;;;;;;0.30;0.30;;;4.70;99.90;;;;;;2080049;28;20318;-82
2023/12/20 01:43:42;;;;;;;0.33;0.33;;;4.70;99.90;;;;;;2039690;28;20336;-81
2023/12/20 01:44:43;;;;;;;0.40;0.40;;;4.60;99.90;;;;;;2031657;28;20229;-83
2023/12/20 01:45:44;;;;;;;0.30;0.30;;;4.60;99.90;;;;;;2031531;29;20554;-82
2023/12/20 01:46:46;;;;;;;0.40;0.40;;;4.60;99.90;;;;;;2039134;29;20232;-81
2023/12/20 01:47:47;;;;;;;0.73;0.40;;;4.60;99.90;;;;;;2031295;28;20232;-83
2023/12/20 01:48:48;;;;;;;0.83;0.30;;;4.60;99.90;;;;;;2027792;29;20252;-82
2023/12/20 01:49:50;;;;;;;0.30;0.30;;;4.50;99.90;;;;;;2039094;29;20228;-83
2023/12/20 01:50:51;;;;;;;0.60;0.60;;;4.60;99.90;;;;;;2030271;28;20230;-83
2023/12/20 01:51:52;;;;;;;0.30;0.30;;;4.60;99.90;;;;;;2026788;28;20240;-84
2023/12/20 01:52:57;;;;;;;0.30;0.30;;;4.60;99.90;;;;;;2031237;29;20652;-84
2023/12/20 01:53:59;;;;;;;0.47;0.47;;;4.50;99.90;;;;;;2039673;29;20224;-82
2023/12/20 01:55:02;;;;;;;1.00;0.40;;;4.50;99.90;;;;;;2039246;29;20335;-83
2023/12/20 01:56:04;;;;;;;0.30;0.30;;;4.50;99.90;;;;;;2038164;29;20287;-83
2023/12/20 01:57:06;;;;;;;0.32;0.32;;;4.50;99.90;;;;;;2040858;28;20217;-80
2023/12/20 01:58:10;;;;;;;0.40;0.40;;;4.50;99.90;;;;;;2040919;29;21255;-80
2023/12/20 01:59:11;;;;;;;0.47;0.32;;;4.50;99.90;;;;;;2055998;28;20191;-83
2023/12/20 02:00:14;;;;;;;14.05;0.82;;;4.60;99.90;;;;;;2033038;28;20181;-84
2023/12/20 02:01:15;;;;;;;0.38;0.38;;;4.50;99.90;;;;;;2032789;29;20197;-83
2023/12/20 02:02:16;;;;;;;1.45;0.70;;;4.50;99.90;;;;;;2041007;28;20184;-82
2023/12/20 02:03:18;;;;;;;0.20;0.20;;;4.60;99.90;;;;;;2030999;28;20208;-84
2023/12/20 02:04:19;;;;;;;0.30;0.30;;;4.60;99.90;;;;;;2031924;28;20192;-83
2023/12/20 02:05:22;;;;;;;0.40;0.40;;;4.60;99.90;;;;;;2030533;28;20253;-84
2023/12/20 02:06:24;;;;;;;1.48;0.50;;;4.50;99.90;;;;;;2037946;29;20244;-83
2023/12/20 02:07:25;;;;;;;0.40;0.40;;;4.60;99.90;;;;;;2072982;28;20329;-83
2023/12/20 02:08:26;;;;;;;0.40;0.40;;;4.60;99.90;;;;;;2078881;28;20294;-81
2023/12/20 02:09:28;;;;;;;0.30;0.30;;;4.60;99.90;;;;;;2076163;28;20318;-83
2023/12/20 02:10:29;;;;;;;0.40;0.40;;;4.60;99.90;;;;;;2047589;28;20308;-83
2023/12/20 02:11:31;;;;;;;0.57;0.40;;;4.50;99.90;;;;;;2038932;29;20613;-82
2023/12/20 02:12:31;;;;;;;0.70;0.30;;;4.50;99.90;;;;;;2038758;29;20327;-81
2023/12/20 02:13:32;;;;;;;0.30;0.30;;;4.50;99.90;;;;;;2031219;28;20236;-82
2023/12/20 02:14:33;;;;;;;0.30;0.30;;;4.50;99.90;;;;;;2037044;28;20263;-83
2023/12/20 02:15:33;;;;;;;0.37;0.37;;;4.50;99.90;;;;;;2039085;29;20244;-83
2023/12/20 02:16:34;;;;;;;0.40;0.40;;;4.60;99.90;;;;;;2039151;28;20267;-81
2023/12/20 02:17:36;;;;;;;0.30;0.30;;;4.60;99.90;;;;;;2032801;28;20717;-83
2023/12/20 02:18:37;;;;;;;0.30;0.30;;;4.50;99.90;;;;;;2024147;28;20245;-83
2023/12/20 02:19:38;;;;;;;1.17;0.30;;;4.50;99.90;;;;;;2031249;29;20329;-84
2023/12/20 02:20:38;;;;;;;0.40;0.40;;;4.50;99.90;;;;;;2065453;28;20602;-83
2023/12/20 02:21:39;;;;;;;0.20;0.20;;;4.60;99.90;;;;;;2043908;28;20256;-84
2023/12/20 02:22:40;;;;;;;0.30;0.30;;;4.60;99.90;;;;;;2032185;29;20237;-83
2023/12/20 02:23:40;;;;;;;0.40;0.40;;;4.60;99.90;;;;;;2031187;29;20232;-82
2023/12/20 02:24:41;;;;;;;0.40;0.40;;;4.60;99.90;;;;;;2029781;29;20244;-83
2023/12/20 02:25:42;;;;;;;0.27;0.27;;;4.60;99.90;;;;;;2037525;29;20236;-84
2023/12/20 02:26:43;;;;;;;0.37;0.37;;;4.60;99.90;;;;;;2031101;28;20237;-82
2023/12/20 02:27:44;;;;;;;0.30;0.30;;;4.50;99.90;;;;;;2029249;28;20240;-83
2023/12/20 02:28:44;;;;;;;0.90;0.40;;;4.50;99.90;;;;;;2038481;28;20251;-82
2023/12/20 02:29:48;;;;;;;0.30;0.30;;;4.50;99.90;;;;;;2058300;28;20240;-83
2023/12/20 02:30:49;;;;;;;0.35;0.30;;;4.50;99.90;;;;;;2045663;28;20233;-81
2023/12/20 02:31:49;;;;;;;4.30;0.40;;;4.60;99.90;;;;;;2038410;29;20256;-84
2023/12/20 02:32:51;;;;;;;0.30;0.30;;;4.60;99.90;;;;;;2038630;29;20224;-82
2023/12/20 02:33:52;;;;;;;0.22;0.22;;;4.60;99.90;;;;;;2028550;28;20248;-83
2023/12/20 02:34:53;;;;;;;0.37;0.30;;;4.50;99.90;;;;;;2079776;28;20732;-82
2023/12/20 02:35:54;;;;;;;0.30;0.30;;;4.50;99.90;;;;;;2075741;28;20228;-84
2023/12/20 02:36:55;;;;;;;0.20;0.20;;;4.50;99.90;;;;;;2037702;28;20220;-82
2023/12/20 02:37:55;;;;;;;0.30;0.30;;;4.50;99.90;;;;;;2044574;28;20234;-81
2023/12/20 02:38:56;;;;;;;0.30;0.30;;;4.50;99.90;;;;;;2077734;28;20763;-82
2023/12/20 02:39:57;;;;;;;0.20;0.20;;;4.40;99.90;;;;;;2037574;29;20228;-82
2023/12/20 02:40:57;;;;;;;0.30;0.30;;;4.50;99.90;;;;;;2030825;28;20725;-84
2023/12/20 02:41:58;;;;;;;0.33;0.33;;;4.40;99.90;;;;;;2030700;29;20236;-84
2023/12/20 02:42:58;;;;;;;0.20;0.20;;;4.50;99.90;;;;;;2038864;28;20228;-81
2023/12/20 02:44:01;;;;;;;0.30;0.30;;;4.50;99.90;;;;;;2038516;28;20243;-83
2023/12/20 02:45:02;;;;;;;0.20;0.20;;;4.50;99.90;;;;;;2046172;28;20257;-84
2023/12/20 02:46:02;;;;;;;0.30;0.30;;;4.50;99.90;;;;;;2041289;29;20246;-83
2023/12/20 02:47:03;;;;;;;0.53;0.37;;;4.40;99.90;;;;;;2046008;29;20329;-82
2023/12/20 02:48:05;;;;;;;0.40;0.40;;;4.40;99.90;;;;;;2045572;29;20199;-82
2023/12/20 02:49:06;;;;;;;0.40;0.40;;;4.30;99.90;;;;;;2037830;28;20195;-83
2023/12/20 02:50:07;;;;;;;0.30;0.30;;;4.30;99.90;;;;;;2038226;28;20207;-82
2023/12/20 02:51:08;;;;;;;0.20;0.20;;;4.20;99.90;;;;;;2026759;29;20205;-84
2023/12/20 02:52:09;;;;;;;0.30;0.30;;;4.20;99.90;;;;;;2056933;28;20219;-81
2023/12/20 02:53:09;;;;;;;0.30;0.30;;;4.20;99.90;;;;;;2037772;28;20180;-82
2023/12/20 02:54:10;;;;;;;0.30;0.30;;;4.20;99.90;;;;;;2037833;28;20184;-81
2023/12/20 02:55:11;;;;;;;0.30;0.30;;;4.20;99.90;;;;;;2041968;28;20557;-82
2023/12/20 02:56:11;;;;;;;0.30;0.30;;;4.20;99.90;;;;;;2045418;29;20263;-81
2023/12/20 02:57:12;;;;;;;0.57;0.30;;;4.30;99.90;;;;;;2037854;28;20189;-83
2023/12/20 02:58:13;;;;;;;0.30;0.30;;;4.20;99.90;;;;;;2037367;29;20180;-80
2023/12/20 02:59:13;;;;;;;1.43;0.30;;;4.20;99.90;;;;;;2053483;28;20641;-82
2023/12/20 03:00:14;;;;;;;0.23;0.23;;;4.20;99.90;;;;;;2038460;28;20180;-81
2023/12/20 03:01:15;;;;;;;0.53;0.40;;;4.20;99.90;;;;;;2030085;28;20189;-81
2023/12/20 03:02:16;;;;;;;0.30;0.30;;;4.20;99.90;;;;;;2029792;28;20717;-82
2023/12/20 03:03:16;;;;;;;0.20;0.20;;;4.20;99.90;;;;;;2037408;29;20192;-82
2023/12/20 03:04:17;;;;;;;0.30;0.30;;;4.20;99.90;;;;;;2034381;28;20192;-81
2023/12/20 03:05:18;;;;;;;0.20;0.20;;;4.20;99.90;;;;;;2046639;28;20626;-83
2023/12/20 03:06:19;;;;;;;0.30;0.30;;;4.20;99.90;;;;;;2046474;28;20200;-82
2023/12/20 03:07:20;;;;;;;0.20;0.20;;;4.20;99.90;;;;;;2054057;28;20645;-83
2023/12/20 03:08:20;;;;;;;0.20;0.20;;;4.20;99.90;;;;;;2056397;28;20226;-80
2023/12/20 03:09:21;;;;;;;0.30;0.30;;;4.10;99.90;;;;;;2042150;28;20260;-80
2023/12/20 03:10:22;;;;;;;0.20;0.20;;;4.20;99.90;;;;;;2053845;28;20335;-80
2023/12/20 03:11:27;;;;;;;0.20;0.20;;;4.30;99.90;;;;;;2037319;29;20247;-81
2023/12/20 03:12:28;;;;;;;0.20;0.20;;;4.30;99.90;;;;;;2038376;29;20248;-80
2023/12/20 03:13:29;;;;;;;0.23;0.23;;;4.30;99.90;;;;;;2037778;29;20238;-83
2023/12/20 03:14:29;;;;;;;0.23;0.23;;;4.30;99.90;;;;;;2029852;28;20714;-81
2023/12/20 03:15:30;;;;;;;0.20;0.20;;;4.30;99.90;;;;;;2029459;28;20237;-80
2023/12/20 03:16:32;;;;;;;0.30;0.30;;;4.30;99.90;;;;;;2029225;28;20782;-83
2023/12/20 03:17:33;;;;;;;0.88;0.40;;;4.30;99.90;;;;;;2042370;28;20235;-80
2023/12/20 03:18:34;;;;;;;0.27;0.27;;;4.40;99.90;;;;;;2065563;28;20241;-81
2023/12/20 03:19:34;;;;;;;0.30;0.30;;;4.40;99.90;;;;;;2047854;28;20244;-82
2023/12/20 03:20:35;;;;;;;0.43;0.20;;;4.30;99.90;;;;;;2028326;28;20241;-80
2023/12/20 03:21:36;;;;;;;0.20;0.20;;;4.30;99.90;;;;;;2030445;28;20240;-81
2023/12/20 03:22:36;;;;;;;0.30;0.30;;;4.30;99.90;;;;;;2044852;28;20666;-83
2023/12/20 03:23:37;;;;;;;0.20;0.20;;;4.30;99.90;;;;;;2031581;28;20239;-82
2023/12/20 03:24:38;;;;;;;0.30;0.30;;;4.30;99.90;;;;;;2042225;28;20235;-82
2023/12/20 03:25:38;;;;;;;0.20;0.20;;;4.20;99.90;;;;;;2031610;29;20640;-80
2023/12/20 03:26:39;;;;;;;0.30;0.30;;;4.10;99.90;;;;;;2036511;28;20245;-82
2023/12/20 03:27:40;;;;;;;0.30;0.30;;;4.10;99.90;;;;;;2031092;29;20323;-82
2023/12/20 03:28:40;;;;;;;0.30;0.30;;;4.00;99.90;;;;;;2037732;28;20290;-82
2023/12/20 03:29:41;;;;;;;0.30;0.30;;;4.00;99.90;;;;;;2038544;28;20331;-82
2023/12/20 03:30:42;;;;;;;0.30;0.30;;;3.90;99.90;;;;;;2030683;28;20684;-81
2023/12/20 03:31:43;;;;;;;0.20;0.20;;;4.00;99.90;;;;;;2036424;28;20239;-82
2023/12/20 03:32:44;;;;;;;0.30;0.30;;;3.90;99.90;;;;;;2030968;28;20801;-81
2023/12/20 03:33:44;;;;;;;0.20;0.20;;;4.00;99.90;;;;;;2039940;28;20665;-83
2023/12/20 03:34:45;;;;;;;0.20;0.20;;;4.00;99.90;;;;;;2030226;29;20243;-81
2023/12/20 03:35:46;;;;;;;0.30;0.30;;;4.00;99.90;;;;;;2071216;28;20228;-82
2023/12/20 03:36:49;;;;;;;0.30;0.30;;;4.00;99.90;;;;;;2079008;28;20291;-82
2023/12/20 03:37:50;;;;;;;0.20;0.20;;;4.10;99.90;;;;;;2036477;28;20238;-80
2023/12/20 03:38:50;;;;;;;0.20;0.20;;;4.10;99.90;;;;;;2037794;28;20283;-81
2023/12/20 03:39:51;;;;;;;0.30;0.30;;;4.10;99.90;;;;;;2031479;28;20236;-81
2023/12/20 03:40:52;;;;;;;0.20;0.20;;;4.10;99.90;;;;;;2030040;29;20247;-80
2023/12/20 03:41:52;;;;;;;0.30;0.30;;;4.00;99.90;;;;;;2047147;29;20752;-80
2023/12/20 03:42:53;;;;;;;0.27;0.27;;;3.90;99.90;;;;;;2047398;29;20242;-80
2023/12/20 03:43:54;;;;;;;0.30;0.30;;;3.90;99.90;;;;;;2047401;28;20236;-79
2023/12/20 03:44:54;;;;;;;0.37;0.30;;;3.80;99.90;;;;;;2059483;28;20238;-81
2023/12/20 03:45:55;;;;;;;0.30;0.30;;;3.90;99.90;;;;;;2040616;28;20379;-82
2023/12/20 03:46:56;;;;;;;0.27;0.27;;;3.80;99.90;;;;;;2037366;28;20225;-79
2023/12/20 03:47:57;;;;;;;0.20;0.20;;;3.80;99.90;;;;;;2039729;29;20212;-79
2023/12/20 03:48:57;;;;;;;0.20;0.20;;;3.80;99.90;;;;;;2029528;29;20237;-83
2023/12/20 03:49:58;;;;;;;0.20;0.20;;;3.80;99.90;;;;;;2035838;29;20238;-83
2023/12/20 03:50:59;;;;;;;0.30;0.30;;;3.80;99.90;;;;;;2039478;29;20321;-83
2023/12/20 03:51:59;;;;;;;0.30;0.30;;;3.90;99.90;;;;;;2038334;28;20338;-84
2023/12/20 03:53:00;;;;;;;0.40;0.40;;;3.80;99.90;;;;;;2037480;28;20320;-82
2023/12/20 03:54:01;;;;;;;0.30;0.30;;;3.90;99.90;;;;;;2035704;28;20260;-83
2023/12/20 03:55:02;;;;;;;0.17;0.17;;;3.90;99.90;;;;;;2038999;28;20608;-83
2023/12/20 03:56:03;;;;;;;1.93;0.30;;;3.90;99.90;;;;;;2031112;28;20315;-80
2023/12/20 03:57:04;;;;;;;0.28;0.28;;;3.90;99.90;;;;;;2037747;28;20288;-79
2023/12/20 03:58:05;;;;;;;0.30;0.30;;;3.90;99.90;;;;;;2047823;28;20184;-81
2023/12/20 03:59:05;;;;;;;0.30;0.30;;;3.90;99.90;;;;;;2054964;28;20434;-79
2023/12/20 04:00:10;;;;;;;0.20;0.20;;;4.00;99.90;;;;;;2053003;28;20192;-83
2023/12/20 04:01:14;;;;;;;0.40;0.40;;;3.90;99.90;;;;;;2050663;28;20198;-84
2023/12/20 04:02:15;;;;;;;0.30;0.30;;;3.80;99.90;;;;;;2040171;29;20703;-82
2023/12/20 04:03:16;;;;;;;0.20;0.20;;;3.80;99.90;;;;;;2032689;28;20240;-82
2023/12/20 04:04:16;;;;;;;0.30;0.30;;;3.80;99.90;;;;;;2031815;28;20213;-83
2023/12/20 04:05:17;;;;;;;0.20;0.20;;;3.80;99.90;;;;;;2040236;28;20189;-82
2023/12/20 04:06:18;;;;;;;0.43;0.30;;;3.80;99.90;;;;;;2039341;28;20684;-83
2023/12/20 04:07:19;;;;;;;0.30;0.30;;;3.80;99.90;;;;;;2045772;29;20180;-83
2023/12/20 04:08:20;;;;;;;0.30;0.30;;;3.80;99.90;;;;;;2038190;29;20576;-82
2023/12/20 04:09:21;;;;;;;0.50;0.23;;;3.80;99.90;;;;;;2031353;29;20642;-83
2023/12/20 04:10:21;;;;;;;0.30;0.30;;;3.80;99.90;;;;;;2039474;29;20223;-84
2023/12/20 04:11:22;;;;;;;0.13;0.13;;;3.80;99.90;;;;;;2037821;29;20743;-82
2023/12/20 04:12:23;;;;;;;0.20;0.20;;;3.70;99.90;;;;;;2047195;29;20326;-83
2023/12/20 04:13:23;;;;;;;0.70;0.40;;;3.60;99.90;;;;;;2039005;28;20243;-82
2023/12/20 04:14:24;;;;;;;0.30;0.30;;;3.60;99.90;;;;;;2040234;28;20789;-81
2023/12/20 04:15:26;;;;;;;0.77;0.30;;;3.50;99.90;;;;;;2031695;28;20243;-83
2023/12/20 04:16:27;;;;;;;0.75;0.30;;;3.50;99.90;;;;;;2038342;29;20236;-83
2023/12/20 04:17:28;;;;;;;0.20;0.20;;;3.50;99.90;;;;;;2050780;28;20627;-84
2023/12/20 04:18:28;;;;;;;0.30;0.30;;;3.50;99.90;;;;;;2038158;29;20282;-83
2023/12/20 04:19:29;;;;;;;0.30;0.30;;;3.50;99.90;;;;;;2072784;28;20225;-83
2023/12/20 04:20:30;;;;;;;0.20;0.20;;;3.60;99.90;;;;;;2081355;28;20240;-83
2023/12/20 04:21:31;;;;;;;0.20;0.20;;;3.50;99.90;;;;;;2052843;28;20314;-82
2023/12/20 04:22:31;;;;;;;0.20;0.20;;;3.60;99.90;;;;;;2038853;29;20306;-79
2023/12/20 04:23:32;;;;;;;0.30;0.30;;;3.60;99.90;;;;;;2031437;29;20237;-83
2023/12/20 04:24:33;;;;;;;0.20;0.20;;;3.60;99.90;;;;;;2033318;29;20240;-83
2023/12/20 04:25:33;;;;;;;0.20;0.20;;;3.70;99.90;;;;;;2039289;29;20294;-83
2023/12/20 04:26:34;;;;;;;0.27;0.27;;;3.70;99.90;;;;;;2038085;29;20231;-81
2023/12/20 04:27:35;;;;;;;0.30;0.30;;;3.80;99.90;;;;;;2031441;29;20331;-82
2023/12/20 04:28:35;;;;;;;0.23;0.23;;;3.70;99.90;;;;;;2030175;29;20303;-83
2023/12/20 04:29:36;;;;;;;0.30;0.30;;;3.80;99.90;;;;;;2030674;29;20639;-83
2023/12/20 04:30:37;;;;;;;0.20;0.20;;;3.80;99.90;;;;;;2026975;28;20246;-82
2023/12/20 04:31:37;;;;;;;0.20;0.20;;;3.70;99.90;;;;;;2038891;28;20240;-83
2023/12/20 04:32:38;;;;;;;0.20;0.20;;;3.70;99.90;;;;;;2037266;29;20244;-83
2023/12/20 04:33:39;;;;;;;0.30;0.30;;;3.70;99.90;;;;;;2047543;28;20330;-83
2023/12/20 04:34:40;;;;;;;0.23;0.23;;;3.70;99.90;;;;;;2041175;29;20244;-82
2023/12/20 04:35:42;;;;;;;0.33;0.30;;;3.70;99.90;;;;;;2030698;28;20241;-82
2023/12/20 04:36:43;;;;;;;0.30;0.30;;;3.70;99.90;;;;;;2024473;28;20715;-82
2023/12/20 04:37:44;;;;;;;0.40;0.30;;;3.70;99.90;;;;;;2030251;29;20267;-83
2023/12/20 04:38:45;;;;;;;0.30;0.30;;;3.60;99.90;;;;;;2038011;29;20532;-82
2023/12/20 04:39:45;;;;;;;0.20;0.20;;;3.60;99.90;;;;;;2038056;29;20243;-82
2023/12/20 04:40:46;;;;;;;0.20;0.20;;;3.60;99.90;;;;;;2038035;29;20228;-82
2023/12/20 04:41:47;;;;;;;0.20;0.20;;;3.70;99.90;;;;;;2084500;28;20497;-82
2023/12/20 04:42:48;;;;;;;0.30;0.30;;;3.60;99.90;;;;;;2038621;29;20611;-82
2023/12/20 04:43:48;;;;;;;0.30;0.30;;;3.50;99.90;;;;;;2042470;28;20244;-82
2023/12/20 04:44:49;;;;;;;0.20;0.20;;;3.50;99.90;;;;;;2038106;28;20710;-83
2023/12/20 04:45:50;;;;;;;0.27;0.27;;;3.60;99.90;;;;;;2032074;28;20244;-82
2023/12/20 04:46:50;;;;;;;0.47;0.30;;;3.60;99.90;;;;;;2039447;28;20247;-80
2023/12/20 04:47:51;;;;;;;0.20;0.20;;;3.60;99.90;;;;;;2039291;29;20245;-83
2023/12/20 04:48:52;;;;;;;0.30;0.30;;;3.60;99.90;;;;;;2039395;29;20275;-83
2023/12/20 04:49:53;;;;;;;0.30;0.30;;;3.70;99.90;;;;;;2040191;29;20238;-84
2023/12/20 04:50:54;;;;;;;0.50;0.50;;;3.70;99.90;;;;;;2040994;28;20239;-81
2023/12/20 04:51:55;;;;;;;0.55;0.50;;;3.70;99.90;;;;;;2057280;28;20227;-79
2023/12/20 04:52:56;;;;;;;0.50;0.50;;;3.70;99.90;;;;;;2049658;28;20220;-80
2023/12/20 04:53:57;;;;;;;0.60;0.60;;;3.70;99.90;;;;;;2035673;28;20243;-80
2023/12/20 04:54:59;;;;;;;0.50;0.50;;;3.70;99.90;;;;;;2021643;28;20296;-82
2023/12/20 04:55:59;;;;;;;0.50;0.50;;;3.70;99.90;;;;;;2032046;29;20310;-84
2023/12/20 04:57:00;;;;;;;0.60;0.53;;;3.70;99.90;;;;;;2038769;29;20228;-81
2023/12/20 04:58:01;;;;;;;0.87;0.70;;;3.70;99.90;;;;;;2038152;29;20232;-81
2023/12/20 04:59:01;;;;;;;0.50;0.50;;;3.70;99.90;;;;;;2039359;28;20256;-83
2023/12/20 05:00:03;;;;;;;0.77;0.40;;;3.70;99.90;;;;;;2041651;28;20249;-84
2023/12/20 05:01:05;;;;;;;0.20;0.20;;;3.80;99.90;;;;;;2033173;29;20235;-82
2023/12/20 05:02:06;;;;;;;0.35;0.35;;;3.70;99.90;;;;;;2044622;28;20680;-82
2023/12/20 05:03:07;;;;;;;0.50;0.50;;;3.80;99.90;;;;;;2047113;28;20261;-82
2023/12/20 05:04:07;;;;;;;0.50;0.50;;;3.80;99.90;;;;;;2043897;28;20288;-83
2023/12/20 05:05:08;;;;;;;2.40;0.70;;;3.80;99.90;;;;;;2074383;28;20185;-83
2023/12/20 05:06:10;;;;;;;0.30;0.30;;;3.90;99.90;;;;;;2063659;28;20194;-81
2023/12/20 05:07:11;;;;;;;0.30;0.30;;;3.90;99.90;;;;;;2031431;28;20193;-82
2023/12/20 05:08:11;;;;;;;0.30;0.30;;;3.90;99.90;;;;;;2038732;29;20627;-83
2023/12/20 05:09:12;;;;;;;0.30;0.30;;;4.00;99.90;;;;;;2038916;29;20223;-83
2023/12/20 05:10:13;;;;;;;0.30;0.30;;;4.00;99.90;;;;;;2045958;28;20587;-83
2023/12/20 05:11:15;;;;;;;0.30;0.30;;;4.00;99.90;;;;;;2031281;28;20185;-83
2023/12/20 05:12:15;;;;;;;0.30;0.30;;;3.90;99.90;;;;;;2030103;29;20291;-83
2023/12/20 05:13:16;;;;;;;0.40;0.30;;;3.90;99.90;;;;;;2027480;28;20185;-83
2023/12/20 05:14:17;;;;;;;0.30;0.30;;;3.90;99.90;;;;;;2035969;29;20185;-83
2023/12/20 05:15:17;;;;;;;0.30;0.30;;;3.90;99.90;;;;;;2031897;29;20662;-83
2023/12/20 05:16:18;;;;;;;0.30;0.30;;;3.80;99.90;;;;;;2034949;29;20228;-83
2023/12/20 05:17:20;;;;;;;0.40;0.40;;;3.80;99.90;;;;;;2038600;28;20219;-84
2023/12/20 05:18:21;;;;;;;0.30;0.30;;;3.90;99.90;;;;;;2030727;28;20182;-83
2023/12/20 05:19:23;;;;;;;0.30;0.30;;;3.90;99.90;;;;;;2022658;28;20562;-83
2023/12/20 05:20:24;;;;;;;0.30;0.30;;;4.00;99.90;;;;;;2037885;29;20232;-84
2023/12/20 05:21:25;;;;;;;0.40;0.40;;;4.00;99.90;;;;;;2021343;28;20265;-83